الصفحة الرئيسية
METAR-TAF:

METAR-TAF

مطار :

Abumusa, إيران

دائرة عرض: 25-52-33N, خط طول: 055-02-01E, ارتفاع: 7 متر

مراقبة الطقس الحالي

تاريخ ووقت الإصدار 51 دقيقة قبل الساعة 08:00UTC
ريح 6 عقدة من الشمال
درجة الحرارة 34°درجة مئوية
الرطوبة 67%
ضغط 997 hPa
الرؤية: 6000 متر

METAR: OIBA 140800Z 36006KT 6000 NSC 34/27 Q0997

زمن: 13:21 (08:51 UTC)


TAF: مفقودة

أرصاد الطقس والتوقعات من أكثر من 4000 مطار (تقارير الطقس للمطار METAR والتنبؤ بالطقس بالمطارTAF).

المحطات المتاحة هي النقط الصفراء والحمراء على الخريطة.

حرك المؤشر فوق النقطة لمعرفة اسم المحطة.

ثم انقر لمعرفة أرصاد وتوقعات الطقس.

لتغيير الخارطة: اضغط على الأزرار الخضراء مع رمز الصليب الأسود للتكبير. على الزر الأخضر مع شرطة للتصغير، أو على الأسهم الخضراء للخرائط المجاورة.


METAR-TAF: